sensor_id;sensor_type;location;lat;lon;timestamp;pressure;altitude;pressure_sealevel;temperature;humidity
54806;BME280;62866;55.776;37.496;2023-03-16T00:00:42;99424.16;;;3.68;76.25
54806;BME280;62866;55.776;37.496;2023-03-16T00:03:11;99418.88;;;3.68;76.21
54806;BME280;62866;55.776;37.496;2023-03-16T00:05:44;99413.09;;;3.72;76.56
54806;BME280;62866;55.776;37.496;2023-03-16T00:08:11;99417.88;;;3.69;77.00
54806;BME280;62866;55.776;37.496;2023-03-16T00:10:37;99405.19;;;3.55;77.16
54806;BME280;62866;55.776;37.496;2023-03-16T00:13:02;99408.75;;;3.46;78.14
54806;BME280;62866;55.776;37.496;2023-03-16T00:15:28;99411.34;;;3.37;78.14
54806;BME280;62866;55.776;37.496;2023-03-16T00:17:54;99403.19;;;3.31;78.96
54806;BME280;62866;55.776;37.496;2023-03-16T00:20:20;99392.56;;;3.23;79.11
54806;BME280;62866;55.776;37.496;2023-03-16T00:22:45;99399.66;;;3.22;79.94
54806;BME280;62866;55.776;37.496;2023-03-16T00:25:12;99389.06;;;3.22;79.73
54806;BME280;62866;55.776;37.496;2023-03-16T00:27:41;99390.44;;;3.26;79.58
54806;BME280;62866;55.776;37.496;2023-03-16T00:30:07;99394.56;;;3.29;79.75
54806;BME280;62866;55.776;37.496;2023-03-16T00:32:35;99396.94;;;3.32;80.08
54806;BME280;62866;55.776;37.496;2023-03-16T00:35:02;99392.00;;;3.37;79.70
54806;BME280;62866;55.776;37.496;2023-03-16T00:37:29;99389.56;;;3.43;79.67
54806;BME280;62866;55.776;37.496;2023-03-16T00:39:56;99394.28;;;3.50;79.37
54806;BME280;62866;55.776;37.496;2023-03-16T00:42:23;99388.16;;;3.49;79.29
54806;BME280;62866;55.776;37.496;2023-03-16T00:44:55;99390.31;;;3.54;78.87
54806;BME280;62866;55.776;37.496;2023-03-16T00:47:26;99401.44;;;3.57;79.53
54806;BME280;62866;55.776;37.496;2023-03-16T00:49:53;99392.19;;;3.61;78.98
54806;BME280;62866;55.776;37.496;2023-03-16T00:52:19;99394.19;;;3.59;79.23
54806;BME280;62866;55.776;37.496;2023-03-16T00:54:46;99400.19;;;3.69;78.60
54806;BME280;62866;55.776;37.496;2023-03-16T00:57:14;99402.31;;;3.66;78.66
54806;BME280;62866;55.776;37.496;2023-03-16T00:59:41;99399.63;;;3.58;79.39
54806;BME280;62866;55.776;37.496;2023-03-16T01:02:08;99400.59;;;3.57;79.26
54806;BME280;62866;55.776;37.496;2023-03-16T01:04:34;99390.13;;;3.47;79.30
54806;BME280;62866;55.776;37.496;2023-03-16T01:07:04;99402.06;;;3.51;80.34
54806;BME280;62866;55.776;37.496;2023-03-16T01:09:30;99396.22;;;3.48;80.41
54806;BME280;62866;55.776;37.496;2023-03-16T01:12:02;99394.41;;;3.48;81.02
54806;BME280;62866;55.776;37.496;2023-03-16T01:14:30;99396.53;;;3.44;79.99
54806;BME280;62866;55.776;37.496;2023-03-16T01:16:56;99402.13;;;3.41;80.25
54806;BME280;62866;55.776;37.496;2023-03-16T01:19:21;99397.50;;;3.43;80.73
54806;BME280;62866;55.776;37.496;2023-03-16T01:21:47;99402.00;;;3.43;81.05
54806;BME280;62866;55.776;37.496;2023-03-16T01:24:12;99400.06;;;3.35;81.10
54806;BME280;62866;55.776;37.496;2023-03-16T01:26:38;99407.84;;;3.37;81.56
54806;BME280;62866;55.776;37.496;2023-03-16T01:29:04;99412.78;;;3.32;81.64
54806;BME280;62866;55.776;37.496;2023-03-16T01:31:29;99404.03;;;3.31;82.33
54806;BME280;62866;55.776;37.496;2023-03-16T01:33:56;99410.00;;;3.33;81.85
54806;BME280;62866;55.776;37.496;2023-03-16T01:36:22;99406.97;;;3.28;82.02
54806;BME280;62866;55.776;37.496;2023-03-16T01:38:47;99403.47;;;3.28;82.13
54806;BME280;62866;55.776;37.496;2023-03-16T01:41:14;99390.53;;;3.17;82.60
54806;BME280;62866;55.776;37.496;2023-03-16T01:43:40;99399.50;;;3.24;82.36
54806;BME280;62866;55.776;37.496;2023-03-16T01:54:09;99405.84;;;3.13;82.83
54806;BME280;62866;55.776;37.496;2023-03-16T01:57:06;99409.59;;;3.11;83.30
54806;BME280;62866;55.776;37.496;2023-03-16T02:00:09;99416.69;;;3.10;82.95
54806;BME280;62866;55.776;37.496;2023-03-16T02:02:43;99413.25;;;3.10;82.54
54806;BME280;62866;55.776;37.496;2023-03-16T02:05:17;99416.25;;;3.15;82.32
54806;BME280;62866;55.776;37.496;2023-03-16T02:07:51;99417.59;;;3.19;82.87
54806;BME280;62866;55.776;37.496;2023-03-16T02:10:24;99415.97;;;3.18;83.27
54806;BME280;62866;55.776;37.496;2023-03-16T02:12:51;99415.13;;;3.17;82.75
54806;BME280;62866;55.776;37.496;2023-03-16T02:15:18;99419.72;;;3.15;82.91
54806;BME280;62866;55.776;37.496;2023-03-16T02:17:45;99409.09;;;3.07;83.31
54806;BME280;62866;55.776;37.496;2023-03-16T02:20:22;99420.00;;;3.12;82.88
54806;BME280;62866;55.776;37.496;2023-03-16T02:22:51;99419.72;;;3.15;82.45
54806;BME280;62866;55.776;37.496;2023-03-16T02:30:59;99415.72;;;3.11;83.14
54806;BME280;62866;55.776;37.496;2023-03-16T02:33:27;99392.00;;;3.01;83.49
54806;BME280;62866;55.776;37.496;2023-03-16T02:35:54;99404.16;;;3.12;83.17
54806;BME280;62866;55.776;37.496;2023-03-16T02:38:19;99414.28;;;3.17;83.19
54806;BME280;62866;55.776;37.496;2023-03-16T02:40:56;99416.94;;;3.17;82.90
54806;BME280;62866;55.776;37.496;2023-03-16T02:43:27;99413.47;;;3.16;83.28
54806;BME280;62866;55.776;37.496;2023-03-16T02:45:59;99407.84;;;3.19;83.15
54806;BME280;62866;55.776;37.496;2023-03-16T02:50:59;99396.63;;;3.17;83.14
54806;BME280;62866;55.776;37.496;2023-03-16T02:53:25;99387.88;;;3.17;82.92
54806;BME280;62866;55.776;37.496;2023-03-16T02:55:50;99397.16;;;3.21;83.11
54806;BME280;62866;55.776;37.496;2023-03-16T02:58:16;99400.25;;;3.16;83.28
54806;BME280;62866;55.776;37.496;2023-03-16T03:00:42;99400.78;;;3.20;83.27
54806;BME280;62866;55.776;37.496;2023-03-16T03:03:09;99397.97;;;3.21;83.11
54806;BME280;62866;55.776;37.496;2023-03-16T03:05:36;99399.50;;;3.24;83.36
54806;BME280;62866;55.776;37.496;2023-03-16T03:08:02;99389.63;;;3.26;83.37
54806;BME280;62866;55.776;37.496;2023-03-16T03:10:28;99398.19;;;3.28;83.06
54806;BME280;62866;55.776;37.496;2023-03-16T03:12:54;99404.31;;;3.28;83.00
54806;BME280;62866;55.776;37.496;2023-03-16T03:15:19;99403.34;;;3.29;83.12
54806;BME280;62866;55.776;37.496;2023-03-16T03:17:46;99394.06;;;3.25;83.38
54806;BME280;62866;55.776;37.496;2023-03-16T03:20:12;99380.47;;;3.20;82.97
54806;BME280;62866;55.776;37.496;2023-03-16T03:22:40;99393.25;;;3.25;83.08
54806;BME280;62866;55.776;37.496;2023-03-16T03:25:06;99390.13;;;3.29;82.82
54806;BME280;62866;55.776;37.496;2023-03-16T03:27:33;99384.00;;;3.29;82.93
54806;BME280;62866;55.776;37.496;2023-03-16T03:29:58;99386.56;;;3.38;82.61
54806;BME280;62866;55.776;37.496;2023-03-16T03:32:24;99384.63;;;3.40;82.56
54806;BME280;62866;55.776;37.496;2023-03-16T03:34:49;99386.94;;;3.43;82.36
54806;BME280;62866;55.776;37.496;2023-03-16T03:37:15;99372.69;;;3.36;82.87
54806;BME280;62866;55.776;37.496;2023-03-16T03:39:41;99374.25;;;3.47;83.13
54806;BME280;62866;55.776;37.496;2023-03-16T03:42:07;99371.69;;;3.55;83.05
54806;BME280;62866;55.776;37.496;2023-03-16T03:44:32;99367.06;;;3.57;83.25
54806;BME280;62866;55.776;37.496;2023-03-16T03:47:01;99368.41;;;3.61;82.42
54806;BME280;62866;55.776;37.496;2023-03-16T03:49:27;99357.63;;;3.55;82.28
54806;BME280;62866;55.776;37.496;2023-03-16T03:51:53;99374.94;;;3.49;82.04
54806;BME280;62866;55.776;37.496;2023-03-16T03:54:20;99378.03;;;3.44;82.35
54806;BME280;62866;55.776;37.496;2023-03-16T03:56:45;99389.06;;;3.40;82.77
54806;BME280;62866;55.776;37.496;2023-03-16T03:59:11;99384.91;;;3.37;82.85
54806;BME280;62866;55.776;37.496;2023-03-16T04:01:36;99376.78;;;3.31;82.94
54806;BME280;62866;55.776;37.496;2023-03-16T04:04:02;99377.91;;;3.28;82.96
54806;BME280;62866;55.776;37.496;2023-03-16T04:06:28;99386.50;;;3.30;83.03
54806;BME280;62866;55.776;37.496;2023-03-16T04:08:53;99389.84;;;3.32;82.72
54806;BME280;62866;55.776;37.496;2023-03-16T04:11:19;99389.16;;;3.30;82.96
54806;BME280;62866;55.776;37.496;2023-03-16T04:13:46;99382.06;;;3.31;83.20
54806;BME280;62866;55.776;37.496;2023-03-16T04:16:11;99371.50;;;3.31;82.78
54806;BME280;62866;55.776;37.496;2023-03-16T04:18:40;99375.31;;;3.36;83.29
54806;BME280;62866;55.776;37.496;2023-03-16T04:21:11;99373.50;;;3.37;83.38
54806;BME280;62866;55.776;37.496;2023-03-16T04:23:37;99360.22;;;3.29;83.12
54806;BME280;62866;55.776;37.496;2023-03-16T04:26:03;99385.16;;;3.26;83.97
54806;BME280;62866;55.776;37.496;2023-03-16T04:28:30;99384.25;;;3.18;83.94
54806;BME280;62866;55.776;37.496;2023-03-16T04:31:01;99371.13;;;3.08;84.48
54806;BME280;62866;55.776;37.496;2023-03-16T04:33:27;99371.41;;;3.05;84.41
54806;BME280;62866;55.776;37.496;2023-03-16T04:35:53;99386.00;;;3.09;84.68
54806;BME280;62866;55.776;37.496;2023-03-16T04:38:18;99389.97;;;3.13;84.60
54806;BME280;62866;55.776;37.496;2023-03-16T04:40:44;99389.97;;;3.13;84.63
54806;BME280;62866;55.776;37.496;2023-03-16T04:43:09;99382.53;;;3.09;84.25
54806;BME280;62866;55.776;37.496;2023-03-16T04:45:35;99386.84;;;3.10;84.41
54806;BME280;62866;55.776;37.496;2023-03-16T04:48:00;99397.75;;;3.15;83.92
54806;BME280;62866;55.776;37.496;2023-03-16T04:50:26;99401.22;;;3.15;84.22
54806;BME280;62866;55.776;37.496;2023-03-16T04:52:51;99387.19;;;3.15;84.25
54806;BME280;62866;55.776;37.496;2023-03-16T04:55:17;99405.22;;;3.19;84.20
54806;BME280;62866;55.776;37.496;2023-03-16T04:57:43;99414.28;;;3.17;84.30
54806;BME280;62866;55.776;37.496;2023-03-16T05:00:09;99408.63;;;3.12;84.45
54806;BME280;62866;55.776;37.496;2023-03-16T05:02:44;99414.03;;;3.10;83.89
54806;BME280;62866;55.776;37.496;2023-03-16T05:05:10;99421.81;;;3.12;84.17
54806;BME280;62866;55.776;37.496;2023-03-16T05:07:35;99417.59;;;3.19;84.44
54806;BME280;62866;55.776;37.496;2023-03-16T05:10:01;99424.69;;;3.18;84.42
54806;BME280;62866;55.776;37.496;2023-03-16T05:12:26;99417.22;;;3.14;83.99
54806;BME280;62866;55.776;37.496;2023-03-16T05:14:52;99414.53;;;3.23;83.65
54806;BME280;62866;55.776;37.496;2023-03-16T05:17:18;99427.13;;;3.29;84.43
54806;BME280;62866;55.776;37.496;2023-03-16T05:19:43;99400.78;;;3.20;84.24
54806;BME280;62866;55.776;37.496;2023-03-16T05:22:09;99411.41;;;3.28;83.81
54806;BME280;62866;55.776;37.496;2023-03-16T05:24:35;99418.91;;;3.32;83.28
54806;BME280;62866;55.776;37.496;2023-03-16T05:27:01;99422.06;;;3.36;83.55
54806;BME280;62866;55.776;37.496;2023-03-16T05:29:27;99432.63;;;3.36;83.80
54806;BME280;62866;55.776;37.496;2023-03-16T05:31:56;99426.91;;;3.23;83.11
54806;BME280;62866;55.776;37.496;2023-03-16T05:34:21;99438.91;;;3.17;83.49
54806;BME280;62866;55.776;37.496;2023-03-16T05:36:47;99435.25;;;3.18;84.37
54806;BME280;62866;55.776;37.496;2023-03-16T05:39:13;99428.16;;;3.19;84.25
54806;BME280;62866;55.776;37.496;2023-03-16T05:41:39;99426.34;;;3.19;84.32
54806;BME280;62866;55.776;37.496;2023-03-16T05:44:05;99425.69;;;3.17;84.17
54806;BME280;62866;55.776;37.496;2023-03-16T05:46:31;99421.69;;;3.13;84.19
54806;BME280;62866;55.776;37.496;2023-03-16T05:48:57;99427.03;;;3.21;84.38
54806;BME280;62866;55.776;37.496;2023-03-16T05:51:23;99421.63;;;3.23;84.45
54806;BME280;62866;55.776;37.496;2023-03-16T05:53:51;99423.78;;;3.27;84.73
54806;BME280;62866;55.776;37.496;2023-03-16T05:56:24;99432.72;;;3.26;84.35
54806;BME280;62866;55.776;37.496;2023-03-16T05:58:54;99436.03;;;3.28;84.56
54806;BME280;62866;55.776;37.496;2023-03-16T06:01:20;99436.94;;;3.37;83.95
54806;BME280;62866;55.776;37.496;2023-03-16T06:03:48;99436.03;;;3.46;84.39
54806;BME280;62866;55.776;37.496;2023-03-16T06:06:18;99437.91;;;3.54;84.25
54806;BME280;62866;55.776;37.496;2023-03-16T06:08:44;99424.41;;;3.57;84.17
54806;BME280;62866;55.776;37.496;2023-03-16T06:11:10;99424.41;;;3.57;84.20
54806;BME280;62866;55.776;37.496;2023-03-16T06:13:37;99428.22;;;3.62;84.07
54806;BME280;62866;55.776;37.496;2023-03-16T06:16:03;99430.09;;;3.70;84.00
54806;BME280;62866;55.776;37.496;2023-03-16T06:18:31;99438.03;;;3.70;84.10
54806;BME280;62866;55.776;37.496;2023-03-16T06:20:57;99442.19;;;3.72;83.82
54806;BME280;62866;55.776;37.496;2023-03-16T06:23:23;99446.09;;;3.68;83.88
54806;BME280;62866;55.776;37.496;2023-03-16T06:25:49;99458.69;;;3.66;83.36
54806;BME280;62866;55.776;37.496;2023-03-16T06:28:15;99465.56;;;3.59;83.67
54806;BME280;62866;55.776;37.496;2023-03-16T06:30:41;99463.22;;;3.56;83.56
54806;BME280;62866;55.776;37.496;2023-03-16T06:33:07;99466.41;;;3.60;83.85
54806;BME280;62866;55.776;37.496;2023-03-16T06:35:33;99464.03;;;3.57;83.88
54806;BME280;62866;55.776;37.496;2023-03-16T06:37:59;99461.63;;;3.63;83.67
54806;BME280;62866;55.776;37.496;2023-03-16T06:40:24;99457.75;;;3.75;84.06
54806;BME280;62866;55.776;37.496;2023-03-16T06:42:50;99446.34;;;3.75;83.57
54806;BME280;62866;55.776;37.496;2023-03-16T06:45:16;99447.19;;;3.75;83.23
54806;BME280;62866;55.776;37.496;2023-03-16T06:47:43;99460.47;;;3.84;83.10
54806;BME280;62866;55.776;37.496;2023-03-16T06:50:09;99451.91;;;3.90;83.63
54806;BME280;62866;55.776;37.496;2023-03-16T06:52:36;99456.00;;;3.84;83.62
54806;BME280;62866;55.776;37.496;2023-03-16T06:55:01;99460.84;;;3.71;83.27
54806;BME280;62866;55.776;37.496;2023-03-16T06:57:27;99459.13;;;3.62;83.81
54806;BME280;62866;55.776;37.496;2023-03-16T06:59:52;99466.91;;;3.63;83.84
54806;BME280;62866;55.776;37.496;2023-03-16T07:02:18;99458.22;;;3.71;83.85
54806;BME280;62866;55.776;37.496;2023-03-16T07:04:44;99473.16;;;3.80;83.65
54806;BME280;62866;55.776;37.496;2023-03-16T07:07:10;99465.06;;;3.81;83.87
54806;BME280;62866;55.776;37.496;2023-03-16T07:09:36;99444.28;;;3.87;84.03
54806;BME280;62866;55.776;37.496;2023-03-16T07:12:02;99440.56;;;3.97;84.12
54806;BME280;62866;55.776;37.496;2023-03-16T07:14:28;99459.72;;;4.17;83.94
54806;BME280;62866;55.776;37.496;2023-03-16T07:16:54;99459.47;;;4.10;84.05
54806;BME280;62866;55.776;37.496;2023-03-16T07:19:19;99465.88;;;4.26;84.25
54806;BME280;62866;55.776;37.496;2023-03-16T07:21:47;99464.31;;;4.41;84.68
54806;BME280;62866;55.776;37.496;2023-03-16T07:24:12;99461.03;;;4.47;83.85
54806;BME280;62866;55.776;37.496;2023-03-16T07:26:38;99462.88;;;4.54;84.42
54806;BME280;62866;55.776;37.496;2023-03-16T07:29:04;99468.41;;;4.69;83.84
54806;BME280;62866;55.776;37.496;2023-03-16T07:31:32;99462.16;;;4.78;83.24
54806;BME280;62866;55.776;37.496;2023-03-16T07:33:57;99467.50;;;4.86;83.19
54806;BME280;62866;55.776;37.496;2023-03-16T07:36:24;99456.75;;;4.88;82.95
54806;BME280;62866;55.776;37.496;2023-03-16T07:38:49;99461.56;;;4.92;82.90
54806;BME280;62866;55.776;37.496;2023-03-16T07:41:16;99452.44;;;4.87;82.57
54806;BME280;62866;55.776;37.496;2023-03-16T07:43:42;99450.94;;;4.76;82.00
54806;BME280;62866;55.776;37.496;2023-03-16T07:46:09;99440.91;;;4.62;82.09
54806;BME280;62866;55.776;37.496;2023-03-16T07:48:38;99445.91;;;4.65;82.14
54806;BME280;62866;55.776;37.496;2023-03-16T07:51:05;99451.03;;;4.67;81.97
54806;BME280;62866;55.776;37.496;2023-03-16T07:53:30;99445.56;;;4.60;81.86
54806;BME280;62866;55.776;37.496;2023-03-16T07:55:56;99442.72;;;4.62;81.99
54806;BME280;62866;55.776;37.496;2023-03-16T07:58:22;99432.25;;;4.52;82.45
54806;BME280;62866;55.776;37.496;2023-03-16T08:00:48;99446.22;;;4.62;82.38
54806;BME280;62866;55.776;37.496;2023-03-16T08:03:13;99448.97;;;4.52;82.34
54806;BME280;62866;55.776;37.496;2023-03-16T08:05:39;99443.81;;;4.43;82.64
54806;BME280;62866;55.776;37.496;2023-03-16T08:08:05;99447.06;;;4.37;82.74
54806;BME280;62866;55.776;37.496;2023-03-16T08:10:34;99449.88;;;4.35;83.18
54806;BME280;62866;55.776;37.496;2023-03-16T08:13:01;99455.00;;;4.37;83.16
54806;BME280;62866;55.776;37.496;2023-03-16T08:15:29;99457.34;;;4.40;83.38
54806;BME280;62866;55.776;37.496;2023-03-16T08:17:57;99470.28;;;4.43;83.60
54806;BME280;62866;55.776;37.496;2023-03-16T08:20:24;99469.47;;;4.42;84.00
54806;BME280;62866;55.776;37.496;2023-03-16T08:22:50;99467.38;;;4.28;84.12
54806;BME280;62866;55.776;37.496;2023-03-16T08:25:16;99457.16;;;4.33;84.72
54806;BME280;62866;55.776;37.496;2023-03-16T08:27:44;99467.19;;;4.55;84.95
54806;BME280;62866;55.776;37.496;2023-03-16T08:30:11;99452.81;;;4.58;84.68
54806;BME280;62866;55.776;37.496;2023-03-16T08:32:38;99462.69;;;4.82;84.00
54806;BME280;62866;55.776;37.496;2023-03-16T08:35:13;99436.84;;;4.76;83.80
54806;BME280;62866;55.776;37.496;2023-03-16T08:37:40;99452.94;;;4.90;83.78
54806;BME280;62866;55.776;37.496;2023-03-16T08:40:07;99447.28;;;4.85;83.77
54806;BME280;62866;55.776;37.496;2023-03-16T08:42:38;99445.03;;;4.99;83.95
54806;BME280;62866;55.776;37.496;2023-03-16T08:45:05;99455.00;;;5.13;83.43
54806;BME280;62866;55.776;37.496;2023-03-16T08:47:37;99464.75;;;5.04;82.42
54806;BME280;62866;55.776;37.496;2023-03-16T08:50:05;99463.53;;;4.90;82.07
54806;BME280;62866;55.776;37.496;2023-03-16T08:52:34;99457.25;;;4.83;82.60
54806;BME280;62866;55.776;37.496;2023-03-16T08:55:01;99464.50;;;4.81;82.63
54806;BME280;62866;55.776;37.496;2023-03-16T08:57:30;99459.03;;;4.75;82.75
54806;BME280;62866;55.776;37.496;2023-03-16T08:59:57;99473.09;;;4.75;83.06
54806;BME280;62866;55.776;37.496;2023-03-16T09:02:22;99470.44;;;4.75;83.10
54806;BME280;62866;55.776;37.496;2023-03-16T09:04:49;99474.09;;;4.74;82.97
54806;BME280;62866;55.776;37.496;2023-03-16T09:07:14;99472.41;;;4.73;82.82
54806;BME280;62866;55.776;37.496;2023-03-16T09:09:40;99466.22;;;4.56;82.70
54806;BME280;62866;55.776;37.496;2023-03-16T09:12:06;99466.66;;;4.52;82.48
54806;BME280;62866;55.776;37.496;2023-03-16T09:14:31;99457.88;;;4.43;82.75
54806;BME280;62866;55.776;37.496;2023-03-16T09:16:57;99464.91;;;4.61;83.08
54806;BME280;62866;55.776;37.496;2023-03-16T09:19:23;99462.28;;;4.69;83.11
54806;BME280;62866;55.776;37.496;2023-03-16T09:21:49;99462.34;;;4.77;82.95
54806;BME280;62866;55.776;37.496;2023-03-16T09:24:15;99457.09;;;4.85;82.61
54806;BME280;62866;55.776;37.496;2023-03-16T09:26:41;99458.56;;;4.87;82.30
54806;BME280;62866;55.776;37.496;2023-03-16T09:29:08;99456.25;;;4.84;82.42
54806;BME280;62866;55.776;37.496;2023-03-16T09:31:34;99460.31;;;4.71;82.51
54806;BME280;62866;55.776;37.496;2023-03-16T09:34:00;99463.91;;;4.62;82.69
54806;BME280;62866;55.776;37.496;2023-03-16T09:36:26;99470.63;;;4.48;83.35
54806;BME280;62866;55.776;37.496;2023-03-16T09:38:52;99466.13;;;4.40;83.54
54806;BME280;62866;55.776;37.496;2023-03-16T09:46:30;99456.22;;;4.42;84.00
54806;BME280;62866;55.776;37.496;2023-03-16T09:48:57;99461.56;;;4.50;84.29
54806;BME280;62866;55.776;37.496;2023-03-16T09:54:21;99454.03;;;4.72;83.43
54806;BME280;62866;55.776;37.496;2023-03-16T09:56:50;99461.00;;;4.73;83.30
54806;BME280;62866;55.776;37.496;2023-03-16T09:59:16;99463.44;;;4.66;83.97
54806;BME280;62866;55.776;37.496;2023-03-16T10:09:33;99477.06;;;4.79;84.26
54806;BME280;62866;55.776;37.496;2023-03-16T10:12:05;99466.66;;;4.86;84.34
54806;BME280;62866;55.776;37.496;2023-03-16T10:14:45;99477.81;;;4.97;84.54
54806;BME280;62866;55.776;37.496;2023-03-16T10:17:19;99478.00;;;5.04;84.84
54806;BME280;62866;55.776;37.496;2023-03-16T10:19:52;99472.72;;;5.12;84.98
54806;BME280;62866;55.776;37.496;2023-03-16T10:22:22;99447.84;;;5.05;84.96
54806;BME280;62866;55.776;37.496;2023-03-16T10:27:50;99471.22;;;5.02;85.23
54806;BME280;62866;55.776;37.496;2023-03-16T10:30:22;99469.09;;;5.21;85.81
54806;BME280;62866;55.776;37.496;2023-03-16T10:32:50;99469.13;;;5.29;84.50
54806;BME280;62866;55.776;37.496;2023-03-16T10:35:47;99450.38;;;5.23;84.21
54806;BME280;62866;55.776;37.496;2023-03-16T10:46:56;99477.53;;;5.17;85.16
54806;BME280;62866;55.776;37.496;2023-03-16T10:49:37;99474.56;;;5.20;85.58
54806;BME280;62866;55.776;37.496;2023-03-16T10:52:54;99477.88;;;5.22;85.19
54806;BME280;62866;55.776;37.496;2023-03-16T10:55:08;99450.81;;;5.02;85.23
54806;BME280;62866;55.776;37.496;2023-03-16T10:57:36;99475.72;;;5.17;85.48
54806;BME280;62866;55.776;37.496;2023-03-16T11:02:36;99478.88;;;5.21;85.94
54806;BME280;62866;55.776;37.496;2023-03-16T11:10:29;99475.09;;;5.31;85.96
54806;BME280;62866;55.776;37.496;2023-03-16T11:13:05;99480.72;;;5.37;86.32
54806;BME280;62866;55.776;37.496;2023-03-16T11:15:41;99484.03;;;5.39;86.66
54806;BME280;62866;55.776;37.496;2023-03-16T11:18:31;99476.25;;;5.37;86.67
54806;BME280;62866;55.776;37.496;2023-03-16T11:21:05;99487.53;;;5.39;86.45
54806;BME280;62866;55.776;37.496;2023-03-16T11:23:38;99481.06;;;5.33;85.89
54806;BME280;62866;55.776;37.496;2023-03-16T11:26:13;99484.53;;;5.26;86.04
54806;BME280;62866;55.776;37.496;2023-03-16T11:28:54;99470.59;;;5.24;86.58
54806;BME280;62866;55.776;37.496;2023-03-16T11:31:50;99480.22;;;5.33;86.63
54806;BME280;62866;55.776;37.496;2023-03-16T11:34:22;99478.56;;;5.32;86.57
54806;BME280;62866;55.776;37.496;2023-03-16T11:36:55;99480.56;;;5.30;86.59
54806;BME280;62866;55.776;37.496;2023-03-16T11:53:23;99505.66;;;5.02;86.45
54806;BME280;62866;55.776;37.496;2023-03-16T12:02:09;99505.63;;;4.93;87.18
54806;BME280;62866;55.776;37.496;2023-03-16T12:15:23;99514.88;;;4.89;87.26
54806;BME280;62866;55.776;37.496;2023-03-16T12:21:02;99509.25;;;4.92;87.02
54806;BME280;62866;55.776;37.496;2023-03-16T12:26:39;99506.75;;;4.91;86.89
54806;BME280;62866;55.776;37.496;2023-03-16T12:31:45;99514.72;;;4.91;87.29
54806;BME280;62866;55.776;37.496;2023-03-16T12:34:21;99521.59;;;4.76;86.80
54806;BME280;62866;55.776;37.496;2023-03-16T12:37:26;99521.22;;;4.71;87.20
54806;BME280;62866;55.776;37.496;2023-03-16T12:39:59;99519.56;;;4.70;87.36
54806;BME280;62866;55.776;37.496;2023-03-16T12:50:54;99518.47;;;4.29;87.75
54806;BME280;62866;55.776;37.496;2023-03-16T12:56:34;99535.94;;;4.39;87.76
54806;BME280;62866;55.776;37.496;2023-03-16T12:59:03;99537.44;;;4.42;87.45
54806;BME280;62866;55.776;37.496;2023-03-16T13:01:41;99546.22;;;4.42;87.80
54806;BME280;62866;55.776;37.496;2023-03-16T13:04:11;99548.81;;;4.34;87.95
54806;BME280;62866;55.776;37.496;2023-03-16T13:06:43;99550.16;;;4.38;88.37
54806;BME280;62866;55.776;37.496;2023-03-16T13:09:11;99550.31;;;4.37;88.11
54806;BME280;62866;55.776;37.496;2023-03-16T13:11:46;99556.44;;;4.37;88.49
54806;BME280;62866;55.776;37.496;2023-03-16T13:14:41;99551.75;;;4.31;87.87
54806;BME280;62866;55.776;37.496;2023-03-16T13:19:43;99537.63;;;4.23;88.21
54806;BME280;62866;55.776;37.496;2023-03-16T13:22:28;99542.09;;;4.22;88.49
54806;BME280;62866;55.776;37.496;2023-03-16T13:27:43;99536.94;;;4.20;88.19
54806;BME280;62866;55.776;37.496;2023-03-16T13:30:20;99539.75;;;4.19;88.32
54806;BME280;62866;55.776;37.496;2023-03-16T13:32:47;99539.94;;;4.17;88.73
54806;BME280;62866;55.776;37.496;2023-03-16T13:35:17;99530.13;;;4.10;88.95
54806;BME280;62866;55.776;37.496;2023-03-16T13:37:44;99540.84;;;4.08;89.35
54806;BME280;62866;55.776;37.496;2023-03-16T13:40:22;99536.88;;;4.12;89.33
54806;BME280;62866;55.776;37.496;2023-03-16T13:42:49;99538.41;;;4.15;89.45
54806;BME280;62866;55.776;37.496;2023-03-16T13:45:37;99534.44;;;4.19;89.54
54806;BME280;62866;55.776;37.496;2023-03-16T13:48:03;99533.75;;;4.09;89.46
54806;BME280;62866;55.776;37.496;2023-03-16T13:50:34;99533.50;;;4.02;89.56
54806;BME280;62866;55.776;37.496;2023-03-16T13:53:04;99529.28;;;3.92;90.07
54806;BME280;62866;55.776;37.496;2023-03-16T13:55:36;99531.25;;;3.90;90.40
54806;BME280;62866;55.776;37.496;2023-03-16T13:58:03;99537.09;;;3.93;89.82
54806;BME280;62866;55.776;37.496;2023-03-16T14:00:34;99539.03;;;3.91;89.89
54806;BME280;62866;55.776;37.496;2023-03-16T14:03:15;99542.66;;;3.90;90.90
54806;BME280;62866;55.776;37.496;2023-03-16T14:05:42;99544.84;;;3.95;90.83
54806;BME280;62866;55.776;37.496;2023-03-16T14:08:37;99536.31;;;4.01;90.65
54806;BME280;62866;55.776;37.496;2023-03-16T14:11:04;99535.00;;;4.05;90.30
54806;BME280;62866;55.776;37.496;2023-03-16T14:13:33;99536.13;;;4.02;90.43
54806;BME280;62866;55.776;37.496;2023-03-16T14:16:12;99529.66;;;3.97;90.60
54806;BME280;62866;55.776;37.496;2023-03-16T14:18:47;99529.03;;;3.85;90.07
54806;BME280;62866;55.776;37.496;2023-03-16T14:21:16;99534.25;;;3.95;90.42
54806;BME280;62866;55.776;37.496;2023-03-16T14:23:47;99534.13;;;3.96;90.44
54806;BME280;62866;55.776;37.496;2023-03-16T14:26:16;99537.44;;;3.98;90.75
54806;BME280;62866;55.776;37.496;2023-03-16T14:29:05;99529.81;;;3.95;90.29
54806;BME280;62866;55.776;37.496;2023-03-16T14:31:33;99543.56;;;3.99;89.95
54806;BME280;62866;55.776;37.496;2023-03-16T14:34:01;99530.50;;;3.97;90.58
54806;BME280;62866;55.776;37.496;2023-03-16T14:36:37;99546.06;;;4.00;90.13
54806;BME280;62866;55.776;37.496;2023-03-16T14:39:11;99539.34;;;3.88;90.38
54806;BME280;62866;55.776;37.496;2023-03-16T14:41:37;99551.03;;;3.86;90.52
54806;BME280;62866;55.776;37.496;2023-03-16T14:44:03;99530.41;;;3.71;90.51
54806;BME280;62866;55.776;37.496;2023-03-16T14:46:31;99529.31;;;3.74;90.76
54806;BME280;62866;55.776;37.496;2023-03-16T14:49:08;99543.88;;;3.78;90.48
54806;BME280;62866;55.776;37.496;2023-03-16T14:51:43;99564.50;;;3.92;90.54
54806;BME280;62866;55.776;37.496;2023-03-16T14:54:12;99583.03;;;3.92;90.82
54806;BME280;62866;55.776;37.496;2023-03-16T14:56:38;99560.56;;;3.78;90.23